Time;durP1;ratioP1;P1;durP2;ratioP2;P2;SDS_P1;SDS_P2;PMS_P1;PMS_P2;Temp;Humidity;BMP_temperature;BMP_pressure;BME280_temperature;BME280_humidity;BME280_pressure;Samples;Min_cycle;Max_cycle;Signal;HPM_P1;HPM_P2
2021/11/10 00:00:54;;;;;;;1.20;1.00;;;;;;;1.12;58.97;100798.11;24490;1358;3026134;-71
2021/11/10 00:03:22;;;;;;;2.80;1.30;;;;;;;1.05;57.65;100805.89;24479;1360;3051837;-71
2021/11/10 00:05:52;;;;;;;1.90;1.10;;;;;;;0.90;57.36;100815.54;24460;1357;3026773;-71
2021/11/10 00:08:21;;;;;;;4.40;0.90;;;;;;;1.00;57.01;100809.67;24475;1356;3026572;-70
2021/11/10 00:10:49;;;;;;;2.80;0.90;;;;;;;1.01;56.81;100804.15;24466;1357;3048700;-70
2021/11/10 00:13:18;;;;;;;4.40;1.40;;;;;;;0.97;56.71;100808.98;24449;1360;3026668;-73
2021/11/10 00:15:51;;;;;;;1.60;0.80;;;;;;;0.93;57.18;100813.98;24435;1356;3070321;-73
2021/11/10 00:18:20;;;;;;;2.20;1.00;;;;;;;0.97;57.30;100817.95;24462;1356;3027306;-73
2021/11/10 00:20:50;;;;;;;3.30;1.00;;;;;;;0.93;57.51;100828.83;24486;1358;3026487;-73
2021/11/10 00:23:19;;;;;;;1.80;1.00;;;;;;;0.91;57.68;100829.86;24475;1357;3030560;-71
2021/11/10 00:25:49;;;;;;;3.90;1.20;;;;;;;0.90;57.95;100824.50;24503;1360;3051054;-69
2021/11/10 00:28:18;;;;;;;1.30;0.70;;;;;;;0.91;58.12;100831.93;24500;1351;3026327;-73
2021/11/10 00:30:47;;;;;;;2.10;1.00;;;;;;;0.90;58.44;100827.61;24512;1360;3026743;-70
2021/11/10 00:33:16;;;;;;;1.50;0.80;;;;;;;0.63;58.71;100836.72;24480;1357;3051441;-71
2021/11/10 00:35:45;;;;;;;2.70;1.20;;;;;;;0.63;58.91;100830.67;24498;1357;3026951;-68
2021/11/10 00:38:14;;;;;;;3.40;1.30;;;;;;;0.64;58.90;100834.65;24474;1357;3070709;-69
2021/11/10 00:40:45;;;;;;;4.60;1.20;;;;;;;0.63;59.20;100840.34;24470;1356;3026359;-69
2021/11/10 00:43:14;;;;;;;2.00;1.20;;;;;;;0.62;59.53;100840.16;24445;1355;3027381;-72
2021/11/10 00:45:43;;;;;;;1.60;0.80;;;;;;;0.54;59.59;100836.35;24486;1358;3026553;-71
2021/11/10 00:48:17;;;;;;;;;;;;;;;0.35;59.98;100843.71;24472;1360;3051961;-71
2021/11/10 00:50:46;;;;;;;1.20;0.60;;;;;;;0.43;60.16;100847.52;24431;1360;3026505;-73
2021/11/10 00:53:15;;;;;;;3.00;1.00;;;;;;;0.38;60.06;100853.89;24456;1362;3068245;-72
2021/11/10 00:55:45;;;;;;;2.30;1.20;;;;;;;0.30;60.14;100856.61;24428;1357;3026482;-72
2021/11/10 00:58:15;;;;;;;2.00;0.90;;;;;;;0.23;60.40;100859.19;24415;1355;3026391;-72
2021/11/10 01:00:47;;;;;;;2.80;1.30;;;;;;;0.19;60.70;100862.44;24515;1350;3026564;-71
2021/11/10 01:03:16;;;;;;;2.60;1.30;;;;;;;0.33;60.89;100876.45;24445;1357;3026357;-70
2021/11/10 01:05:45;;;;;;;6.90;1.30;;;;;;;0.28;60.86;100877.46;24438;1360;3026437;-71
2021/11/10 01:08:14;;;;;;;2.00;1.20;;;;;;;0.18;61.37;100886.05;24396;1356;3053603;-71
2021/11/10 01:10:43;;;;;;;5.90;1.50;;;;;;;0.16;61.24;100893.61;24375;1361;3026522;-74
2021/11/10 01:13:32;;;;;;;5.70;2.80;;;;;;;0.08;61.73;100898.40;24389;1357;3052311;-71
2021/11/10 01:16:02;;;;;;;8.70;2.20;;;;;;;0.14;61.68;100903.60;24443;1357;3026890;-70
2021/11/10 01:18:31;;;;;;;4.20;1.60;;;;;;;-0.02;61.89;100907.80;24436;1351;3026438;-71
2021/11/10 01:21:05;;;;;;;3.10;1.50;;;;;;;-0.00;61.99;100902.83;24451;1360;3050938;-72
2021/11/10 01:23:34;;;;;;;1.60;1.20;;;;;;;-0.02;62.55;100901.63;24470;1360;3026861;-70
2021/11/10 01:26:03;;;;;;;2.30;1.10;;;;;;;-0.06;62.85;100916.77;24404;1357;3026762;-74
2021/11/10 01:28:33;;;;;;;2.40;1.10;;;;;;;-0.18;62.94;100922.70;24389;1355;3053951;-71
2021/11/10 01:31:02;;;;;;;1.30;0.80;;;;;;;-0.23;63.25;100920.10;24385;1360;3029495;-72
2021/11/10 01:33:32;;;;;;;1.60;1.10;;;;;;;-0.24;62.76;100920.41;24438;1360;3049901;-69
2021/11/10 01:36:13;;;;;;;2.40;1.00;;;;;;;-0.34;62.92;100926.04;24468;1357;3054799;-72
2021/11/10 01:38:43;;;;;;;1.50;1.10;;;;;;;-0.28;62.56;100934.01;24488;1357;3026549;-71
2021/11/10 01:41:13;;;;;;;1.80;1.00;;;;;;;-0.33;62.62;100931.90;24293;1358;3248260;-72
2021/11/10 01:43:46;;;;;;;3.10;1.10;;;;;;;-0.39;62.51;100937.36;24477;1358;3054622;-71
2021/11/10 01:46:15;;;;;;;2.10;1.00;;;;;;;-0.48;62.91;100942.45;24467;1361;3026588;-71
2021/11/10 01:48:45;;;;;;;3.60;1.20;;;;;;;-0.45;62.56;100948.33;24462;1357;3028820;-73
2021/11/10 01:51:14;;;;;;;1.40;0.80;;;;;;;-0.43;62.69;100948.70;24466;1360;3054613;-69
2021/11/10 01:53:42;;;;;;;1.80;1.20;;;;;;;-0.51;62.26;100953.61;24456;1355;3028178;-73
2021/11/10 01:56:17;;;;;;;1.70;1.00;;;;;;;-0.53;62.31;100951.36;24479;1356;3048228;-71
2021/11/10 01:58:46;;;;;;;;;;;;;;;-0.65;62.19;100966.91;24489;1355;3052670;-72
2021/11/10 02:01:16;;;;;;;1.20;0.70;;;;;;;-0.82;62.31;100963.66;24483;1361;3030540;-72
2021/11/10 02:03:45;;;;;;;1.20;0.60;;;;;;;-0.77;62.66;100974.73;24471;1356;3048255;-72
2021/11/10 02:06:21;;;;;;;2.80;1.10;;;;;;;-0.84;62.31;100981.02;24499;1356;3051525;-71
2021/11/10 02:08:56;;;;;;;3.20;1.40;;;;;;;-0.79;62.45;100978.14;24480;1357;3053648;-71
2021/11/10 02:11:29;;;;;;;3.50;0.80;;;;;;;-0.81;62.17;100977.78;24474;1360;3026557;-72
2021/11/10 02:14:07;;;;;;;1.60;0.70;;;;;;;-1.03;62.10;100984.94;24461;1357;3052538;-71
2021/11/10 02:16:38;;;;;;;2.50;0.80;;;;;;;-0.97;61.82;100978.13;24460;1358;3026299;-72
2021/11/10 02:19:08;;;;;;;1.70;1.00;;;;;;;-1.02;62.31;100980.66;24469;1360;3026763;-72
2021/11/10 02:21:45;;;;;;;4.30;1.10;;;;;;;-1.01;62.06;100987.20;24447;1362;3026682;-71
2021/11/10 02:24:16;;;;;;;1.60;0.80;;;;;;;-0.99;62.15;100997.02;24464;1357;3048302;-72
2021/11/10 02:26:45;;;;;;;1.20;0.90;;;;;;;-1.05;62.26;101000.23;24463;1356;3029400;-71
2021/11/10 02:29:27;;;;;;;1.30;0.80;;;;;;;-1.03;61.69;100992.68;24455;1360;3027071;-71
2021/11/10 02:31:57;;;;;;;1.50;0.90;;;;;;;-1.05;61.62;101000.23;24488;1360;3059178;-72
2021/11/10 02:34:25;;;;;;;2.90;0.60;;;;;;;-1.12;61.94;101008.75;24487;1357;3026599;-73
2021/11/10 02:36:54;;;;;;;4.60;1.00;;;;;;;-1.06;62.05;101016.21;24446;1354;3026693;-71
2021/11/10 02:39:23;;;;;;;1.80;0.90;;;;;;;-1.06;61.98;101017.59;24427;1357;3058257;-71
2021/11/10 02:41:53;;;;;;;1.40;0.90;;;;;;;-1.15;62.33;101023.84;24471;1358;3027066;-72
2021/11/10 02:44:22;;;;;;;2.30;0.90;;;;;;;-1.04;62.32;101024.48;24495;1357;3055229;-73
2021/11/10 02:46:52;;;;;;;2.30;0.90;;;;;;;-1.09;62.41;101031.13;24402;1360;3026901;-71
2021/11/10 02:49:22;;;;;;;3.80;1.00;;;;;;;-1.12;62.84;101027.32;24453;1357;3051079;-72
2021/11/10 02:52:03;;;;;;;3.20;1.20;;;;;;;-0.97;62.68;101032.48;24400;1363;3054128;-71
2021/11/10 02:54:36;;;;;;;2.70;1.20;;;;;;;-1.04;63.02;101041.18;24476;1356;3026149;-73
2021/11/10 02:57:05;;;;;;;2.20;1.20;;;;;;;-1.07;63.40;101041.31;24495;1356;3027212;-74
2021/11/10 02:59:35;;;;;;;2.50;1.10;;;;;;;-1.09;63.64;101042.50;24489;1358;3026698;-73
2021/11/10 03:02:05;;;;;;;2.40;1.10;;;;;;;-1.08;64.21;101046.80;24471;1357;3026337;-72
2021/11/10 03:04:44;;;;;;;2.80;1.50;;;;;;;-1.16;64.96;101054.44;24440;1355;3026793;-72
2021/11/10 03:07:14;;;;;;;2.40;1.20;;;;;;;-1.17;65.53;101058.39;24466;1362;3051940;-72
2021/11/10 03:09:45;;;;;;;3.50;1.10;;;;;;;-1.14;66.11;101060.48;24495;1357;3026574;-72
2021/11/10 03:12:23;;;;;;;6.20;1.20;;;;;;;-1.24;67.86;101066.19;24500;1360;3052856;-72
2021/11/10 03:14:53;;;;;;;2.60;1.50;;;;;;;-1.37;69.13;101076.16;24450;1351;3027068;-73
2021/11/10 03:17:22;;;;;;;2.90;1.40;;;;;;;-1.42;69.69;101076.63;24443;1355;3027216;-70
2021/11/10 03:19:53;;;;;;;4.20;1.70;;;;;;;-1.55;70.52;101081.41;24479;1357;3028763;-73
2021/11/10 03:22:23;;;;;;;2.00;1.30;;;;;;;-1.43;70.57;101077.63;24453;1356;3026584;-71
2021/11/10 03:24:54;;;;;;;4.60;1.70;;;;;;;-0.87;69.28;101080.60;24439;1360;3027007;-71
2021/11/10 03:27:28;;;;;;;5.20;1.70;;;;;;;-0.58;67.74;101079.55;24492;1355;3049445;-72
2021/11/10 03:30:04;;;;;;;2.90;1.40;;;;;;;-0.70;67.65;101089.75;24464;1357;3055179;-71
2021/11/10 03:32:42;;;;;;;2.40;1.30;;;;;;;-0.79;68.00;101093.41;24444;1357;3051933;-71
2021/11/10 03:35:12;;;;;;;4.50;1.80;;;;;;;-0.99;68.77;101110.56;24481;1358;3026418;-71
2021/11/10 03:37:42;;;;;;;2.50;1.30;;;;;;;-1.07;68.89;101110.45;24515;1360;3053728;-71
2021/11/10 03:40:13;;;;;;;2.50;1.60;;;;;;;-1.24;69.51;101115.38;24487;1357;3026853;-73
2021/11/10 03:42:48;;;;;;;3.60;1.70;;;;;;;-1.42;70.50;101119.75;24487;1354;3055492;-72
2021/11/10 03:45:18;;;;;;;1.80;0.90;;;;;;;-1.51;70.38;101116.70;24435;1356;3026941;-73
2021/11/10 03:47:47;;;;;;;3.20;1.80;;;;;;;-1.59;70.82;101115.36;24491;1356;3026595;-72
2021/11/10 03:50:19;;;;;;;2.20;1.40;;;;;;;-1.71;71.32;101121.04;24505;1356;3055369;-71
2021/11/10 03:53:02;;;;;;;5.10;2.40;;;;;;;-1.84;71.70;101122.38;24431;1357;3052228;-70
2021/11/10 03:55:40;;;;;;;3.20;1.40;;;;;;;-1.92;72.48;101118.45;24411;1358;3026658;-71
2021/11/10 03:58:10;;;;;;;3.20;1.50;;;;;;;-1.85;71.82;101130.08;24398;1357;3053747;-72
2021/11/10 04:00:40;;;;;;;3.20;1.30;;;;;;;-1.86;71.97;101126.98;24375;1358;3027266;-72
2021/11/10 04:03:09;;;;;;;4.40;1.40;;;;;;;-1.26;70.67;101130.30;24447;1357;3027202;-73
2021/11/10 04:05:42;;;;;;;9.10;2.40;;;;;;;-0.94;68.89;101136.09;24513;1355;3026351;-73
2021/11/10 04:08:11;;;;;;;3.40;1.70;;;;;;;-0.84;68.02;101139.83;24459;1358;3026398;-72
2021/11/10 04:10:41;;;;;;;2.10;1.60;;;;;;;-1.01;68.42;101141.99;24473;1357;3026497;-72
2021/11/10 04:13:29;;;;;;;6.90;2.00;;;;;;;-1.21;68.89;101142.92;24454;1357;3052241;-72
2021/11/10 04:16:00;;;;;;;5.20;2.20;;;;;;;-1.42;69.59;101153.10;24448;1357;3026392;-72
2021/11/10 04:18:32;;;;;;;3.70;2.00;;;;;;;-1.52;70.49;101158.96;24455;1361;3026480;-72
2021/11/10 04:21:24;;;;;;;3.70;1.70;;;;;;;-1.69;70.92;101160.41;24467;1357;3069284;-73
2021/11/10 04:23:55;;;;;;;3.40;2.00;;;;;;;-1.73;70.98;101169.11;24477;1357;3026585;-71
2021/11/10 04:26:28;;;;;;;6.10;2.10;;;;;;;-1.86;70.97;101171.97;24491;1357;3027018;-71
2021/11/10 04:28:58;;;;;;;4.40;2.20;;;;;;;-1.98;71.85;101174.86;24485;1357;3028444;-72
2021/11/10 04:31:27;;;;;;;4.40;2.20;;;;;;;-2.05;72.10;101188.13;24443;1360;3026195;-72
2021/11/10 04:33:56;;;;;;;3.90;2.30;;;;;;;-2.09;72.43;101191.66;24439;1356;3026447;-72
2021/11/10 04:36:28;;;;;;;2.40;1.50;;;;;;;-2.07;72.93;101189.81;24461;1360;3053755;-73
2021/11/10 04:38:59;;;;;;;4.50;1.90;;;;;;;-1.39;70.99;101186.66;24484;1356;3026967;-72
2021/11/10 04:41:29;;;;;;;2.00;1.50;;;;;;;-1.02;69.26;101190.16;24467;1362;3027478;-71
2021/11/10 04:43:59;;;;;;;6.20;2.10;;;;;;;-1.13;69.37;101193.44;24503;1356;3026307;-72
2021/11/10 04:46:32;;;;;;;2.90;1.70;;;;;;;-1.19;69.54;101192.98;24483;1358;3026564;-71
2021/11/10 04:49:01;;;;;;;6.80;2.00;;;;;;;-1.45;69.93;101203.77;24490;1362;3049116;-71
2021/11/10 04:51:31;;;;;;;5.80;2.50;;;;;;;-1.62;70.48;101212.08;24438;1358;3027067;-73
2021/11/10 04:54:06;;;;;;;3.90;1.60;;;;;;;-1.72;70.79;101216.03;24447;1356;3026665;-72
2021/11/10 04:56:36;;;;;;;5.30;1.80;;;;;;;-1.93;71.66;101220.63;24447;1357;3068091;-72
2021/11/10 04:59:06;;;;;;;5.50;2.60;;;;;;;-2.02;72.38;101221.31;24448;1357;3026388;-71
2021/11/10 05:01:38;;;;;;;5.10;2.40;;;;;;;-2.04;72.60;101225.94;24471;1353;3028082;-72
2021/11/10 05:04:10;;;;;;;7.50;2.10;;;;;;;-2.06;72.23;101225.88;24522;1355;3052065;-72
2021/11/10 05:06:39;;;;;;;4.20;2.20;;;;;;;-2.12;72.95;101229.36;24474;1356;3026183;-72
2021/11/10 05:09:09;;;;;;;2.90;1.70;;;;;;;-2.14;73.09;101233.98;24430;1356;3026928;-73
2021/11/10 05:11:48;;;;;;;3.10;1.50;;;;;;;-1.40;71.24;101230.31;24471;1362;3056107;-72
2021/11/10 05:14:17;;;;;;;4.40;2.00;;;;;;;-1.14;69.29;101236.42;24466;1357;3028678;-73
2021/11/10 05:16:47;;;;;;;6.30;2.00;;;;;;;-1.08;69.36;101233.95;24460;1360;3048913;-72
2021/11/10 05:19:16;;;;;;;5.00;2.00;;;;;;;-1.09;68.57;101239.42;24480;1355;3026737;-73
2021/11/10 05:21:46;;;;;;;3.10;1.60;;;;;;;-1.45;69.72;101248.45;24451;1355;3026949;-73
2021/11/10 05:24:15;;;;;;;8.90;2.60;;;;;;;-1.68;70.55;101263.19;24463;1357;3049209;-72
2021/11/10 05:26:45;;;;;;;5.50;2.30;;;;;;;-1.82;70.83;101270.32;24476;1360;3026247;-72
2021/11/10 05:29:13;;;;;;;4.10;1.80;;;;;;;-2.02;71.64;101272.86;24473;1350;3026515;-72
2021/11/10 05:31:43;;;;;;;6.90;2.30;;;;;;;-2.06;71.97;101272.45;24446;1360;3049720;-71
2021/11/10 05:34:12;;;;;;;6.40;2.70;;;;;;;-2.09;72.11;101279.42;24470;1357;3026359;-71
2021/11/10 05:36:41;;;;;;;5.20;2.70;;;;;;;-2.13;72.05;101280.17;24454;1356;3058408;-72
2021/11/10 05:39:10;;;;;;;6.10;2.80;;;;;;;-2.07;72.30;101284.94;24507;1357;3028683;-73
2021/11/10 05:41:39;;;;;;;4.40;2.70;;;;;;;-2.06;72.31;101283.75;24456;1363;3053596;-72
2021/11/10 05:44:08;;;;;;;6.10;3.10;;;;;;;-2.00;71.92;101280.63;24471;1351;3026347;-73
2021/11/10 05:46:37;;;;;;;4.60;1.70;;;;;;;-1.96;72.10;101289.10;24477;1356;3054517;-71
2021/11/10 05:49:07;;;;;;;3.90;1.80;;;;;;;-1.35;70.27;101289.72;24490;1357;3027470;-72
2021/11/10 05:51:37;;;;;;;6.00;2.30;;;;;;;-1.14;68.98;101289.90;24450;1358;3028657;-73
2021/11/10 05:54:07;;;;;;;5.20;1.90;;;;;;;-1.06;68.29;101286.77;24456;1357;3026458;-71
2021/11/10 05:56:39;;;;;;;6.30;2.30;;;;;;;-1.24;68.61;101288.52;24457;1356;3027285;-73
2021/11/10 05:59:09;;;;;;;4.40;2.20;;;;;;;-1.30;68.82;101300.81;24487;1360;3028077;-73
2021/11/10 06:01:38;;;;;;;5.60;2.50;;;;;;;-1.34;68.77;101302.45;24430;1356;3026576;-72
2021/11/10 06:04:08;;;;;;;5.90;2.30;;;;;;;-1.27;68.71;101304.98;24452;1355;3026725;-72
2021/11/10 06:06:37;;;;;;;5.10;2.40;;;;;;;-1.32;68.84;101311.43;24430;1357;3028369;-73
2021/11/10 06:09:06;;;;;;;7.60;2.90;;;;;;;-1.39;69.31;101316.13;24383;1358;3026614;-72
2021/11/10 06:11:36;;;;;;;13.10;3.30;;;;;;;-1.37;69.21;101319.77;24427;1359;3047240;-72
2021/11/10 06:14:07;;;;;;;5.40;2.50;;;;;;;-1.44;69.15;101317.58;24471;1356;3026463;-72
2021/11/10 06:16:36;;;;;;;7.70;2.80;;;;;;;-1.62;69.67;101318.30;24481;1360;3070410;-74
2021/11/10 06:19:26;;;;;;;7.90;2.90;;;;;;;-1.69;69.57;101319.00;24445;1361;3049406;-71
2021/11/10 06:21:55;;;;;;;6.80;2.30;;;;;;;-1.56;69.25;101320.80;24479;1357;3026712;-73
2021/11/10 06:24:24;;;;;;;8.00;3.20;;;;;;;-1.61;69.07;101315.38;24481;1356;3027275;-72
2021/11/10 06:26:54;;;;;;;4.50;2.50;;;;;;;-1.53;69.20;101317.23;24490;1359;3050877;-72
2021/11/10 06:29:24;;;;;;;7.10;1.90;;;;;;;-1.43;69.29;101320.35;24482;1360;3026657;-72
2021/11/10 06:31:53;;;;;;;7.90;3.10;;;;;;;-1.42;68.26;101321.23;24448;1355;3026913;-71
2021/11/10 06:34:22;;;;;;;6.60;3.20;;;;;;;-1.15;67.67;101320.15;24496;1358;3026651;-72
2021/11/10 06:36:51;;;;;;;11.90;2.60;;;;;;;-1.02;67.16;101324.31;24458;1352;3051561;-73
2021/11/10 06:39:20;;;;;;;8.60;3.70;;;;;;;-1.11;67.01;101322.63;24477;1356;3026203;-72
2021/11/10 06:41:49;;;;;;;7.00;3.00;;;;;;;-1.10;67.61;101324.17;24476;1356;3048887;-73
2021/11/10 06:44:17;;;;;;;7.20;2.70;;;;;;;-0.90;66.51;101326.40;24449;1351;3028688;-72
2021/11/10 06:46:47;;;;;;;5.70;2.00;;;;;;;-0.96;65.93;101324.26;24471;1355;3070607;-73
2021/11/10 06:49:17;;;;;;;7.30;2.80;;;;;;;-1.03;66.20;101327.91;24453;1363;3026658;-72
2021/11/10 06:51:46;;;;;;;7.20;2.50;;;;;;;-0.91;65.99;101325.89;24384;1356;3026507;-74
2021/11/10 06:54:15;;;;;;;13.30;3.90;;;;;;;-0.68;65.49;101329.85;24498;1357;3026421;-73
2021/11/10 06:56:45;;;;;;;6.00;2.90;;;;;;;-0.72;65.00;101331.69;24448;1358;3050470;-72
2021/11/10 06:59:16;;;;;;;7.30;2.60;;;;;;;-0.97;65.25;101328.72;24475;1360;3026594;-73
2021/11/10 07:01:45;;;;;;;5.50;2.30;;;;;;;-0.64;64.35;101329.40;24488;1358;3026535;-74
2021/11/10 07:04:15;;;;;;;5.60;2.20;;;;;;;-0.41;63.62;101323.55;24477;1357;3026215;-73
2021/11/10 07:06:45;;;;;;;7.90;2.60;;;;;;;-0.55;63.70;101334.88;24447;1355;3026221;-74
2021/11/10 07:09:24;;;;;;;5.80;2.60;;;;;;;-0.61;63.89;101340.64;24463;1356;3055216;-73
2021/11/10 07:11:53;;;;;;;6.60;2.20;;;;;;;-0.64;63.98;101341.62;24475;1357;3026475;-71
2021/11/10 07:14:23;;;;;;;4.80;2.20;;;;;;;-0.59;64.12;101343.77;24498;1360;3054634;-70
2021/11/10 07:16:53;;;;;;;5.00;2.50;;;;;;;-0.29;63.28;101340.23;24471;1362;3028823;-72
2021/11/10 07:19:22;;;;;;;4.20;2.30;;;;;;;-0.06;62.83;101343.30;24492;1357;3028188;-72
2021/11/10 07:21:51;;;;;;;4.20;2.30;;;;;;;0.17;62.24;101341.69;24472;1359;3026993;-71
2021/11/10 07:24:20;;;;;;;3.80;2.30;;;;;;;0.31;61.29;101340.30;24471;1360;3053879;-72
2021/11/10 07:26:49;;;;;;;4.20;2.30;;;;;;;0.10;61.81;101340.73;24455;1358;3026581;-71
2021/11/10 07:29:21;;;;;;;5.60;2.20;;;;;;;0.03;62.13;101339.63;24503;1360;3054431;-70
2021/11/10 07:31:50;;;;;;;9.10;2.70;;;;;;;0.08;62.02;101340.20;24475;1355;3026195;-72
2021/11/10 07:34:19;;;;;;;5.70;2.30;;;;;;;-0.12;62.64;101339.26;24470;1358;3048350;-72
2021/11/10 07:36:51;;;;;;;7.60;2.90;;;;;;;-0.13;62.62;101340.96;24472;1358;3027320;-70
2021/11/10 07:39:21;;;;;;;6.70;2.70;;;;;;;-0.17;62.71;101340.40;24433;1362;3028078;-73
2021/11/10 07:41:51;;;;;;;7.70;2.80;;;;;;;-0.12;62.65;101346.33;24478;1357;3026452;-72
2021/11/10 07:44:22;;;;;;;11.30;2.50;;;;;;;-0.21;63.47;101350.50;24466;1360;3026709;-71
2021/11/10 07:47:05;;;;;;;6.00;2.60;;;;;;;-0.18;62.98;101350.38;24461;1359;3026936;-72
2021/11/10 07:49:36;;;;;;;7.00;2.80;;;;;;;0.05;62.35;101354.64;24470;1358;3054356;-72
2021/11/10 07:52:05;;;;;;;5.40;2.80;;;;;;;0.26;61.44;101347.65;24428;1358;3026415;-72
2021/11/10 07:54:34;;;;;;;6.20;2.60;;;;;;;0.09;61.60;101350.55;24470;1362;3055254;-73
2021/11/10 07:57:04;;;;;;;6.00;2.50;;;;;;;0.25;61.30;101349.37;24452;1360;3026767;-71
2021/11/10 07:59:33;;;;;;;4.30;2.20;;;;;;;0.33;60.77;101339.98;24477;1360;3026968;-72
2021/11/10 08:02:02;;;;;;;4.50;2.00;;;;;;;0.33;60.08;101354.81;24451;1360;3055350;-72
2021/11/10 08:04:31;;;;;;;7.00;2.40;;;;;;;0.43;60.13;101350.79;24527;1360;3026620;-70
2021/11/10 08:07:00;;;;;;;4.90;2.50;;;;;;;0.48;59.98;101349.80;24453;1355;3027153;-72
2021/11/10 08:09:49;;;;;;;5.20;2.30;;;;;;;0.30;60.84;101359.77;24447;1361;3051707;-71
2021/11/10 08:12:18;;;;;;;6.80;2.70;;;;;;;0.39;61.04;101366.77;24494;1358;3027116;-71
2021/11/10 08:14:47;;;;;;;8.30;3.10;;;;;;;0.54;60.37;101364.00;24483;1360;3048944;-75
2021/11/10 08:17:36;;;;;;;6.90;2.70;;;;;;;0.60;60.12;101361.14;24447;1357;3052961;-69
2021/11/10 08:20:06;;;;;;;7.90;3.30;;;;;;;0.71;59.74;101363.15;24465;1356;3026361;-65
2021/11/10 08:22:36;;;;;;;3.20;2.40;;;;;;;0.73;59.88;101359.02;24491;1360;3050008;-69
2021/11/10 08:25:09;;;;;;;7.40;2.70;;;;;;;0.98;59.44;101358.23;24498;1355;3027744;-73
2021/11/10 08:27:38;;;;;;;4.30;2.30;;;;;;;1.12;58.80;101358.02;24446;1363;3026633;-72
2021/11/10 08:30:18;;;;;;;5.30;2.40;;;;;;;1.03;57.85;101355.86;24463;1355;3071488;-71
2021/11/10 08:32:51;;;;;;;6.90;2.70;;;;;;;1.04;58.18;101355.18;24476;1362;3026792;-72
2021/11/10 08:35:20;;;;;;;8.40;2.70;;;;;;;1.15;57.77;101355.44;24589;1357;3028776;-70
2021/11/10 08:37:50;;;;;;;7.10;2.60;;;;;;;1.09;58.24;101354.02;24478;1359;3027296;-71
2021/11/10 08:40:20;;;;;;;7.10;2.50;;;;;;;1.32;57.76;101351.79;24468;1361;3026518;-71
2021/11/10 08:42:49;;;;;;;6.10;3.20;;;;;;;1.46;57.25;101353.63;24456;1360;3030380;-75
2021/11/10 08:45:23;;;;;;;5.50;2.40;;;;;;;1.42;57.16;101350.81;24439;1362;3051981;-73
2021/11/10 08:47:53;;;;;;;6.30;3.00;;;;;;;1.47;56.89;101351.03;24486;1357;3056595;-74
2021/11/10 08:50:23;;;;;;;9.30;3.20;;;;;;;1.68;56.35;101344.08;24566;1357;3026698;-73
2021/11/10 08:52:52;;;;;;;5.20;2.80;;;;;;;1.62;56.49;101352.86;24474;1363;3026844;-67
2021/11/10 08:55:22;;;;;;;6.50;3.10;;;;;;;1.66;56.23;101348.73;24489;1363;3055940;-73
2021/11/10 08:57:51;;;;;;;4.30;2.40;;;;;;;1.60;56.18;101348.70;24440;1363;3026354;-71
2021/11/10 09:00:23;;;;;;;8.60;2.90;;;;;;;1.45;56.28;101352.91;24468;1363;3025808;-72
2021/11/10 09:02:55;;;;;;;3.70;2.10;;;;;;;1.42;56.68;101349.45;24450;1357;3058462;-69
2021/11/10 09:05:24;;;;;;;5.00;3.10;;;;;;;1.60;56.54;101349.39;24424;1360;3026365;-72
2021/11/10 09:07:56;;;;;;;4.80;2.20;;;;;;;1.61;56.34;101350.60;24415;1363;3027188;-73
2021/11/10 09:10:45;;;;;;;7.10;2.20;;;;;;;1.68;56.38;101349.43;24461;1354;3051497;-70
2021/11/10 09:13:14;;;;;;;8.00;2.90;;;;;;;1.66;55.99;101343.56;24414;1363;3029913;-71
2021/11/10 09:15:45;;;;;;;7.60;2.50;;;;;;;1.60;56.05;101352.33;24466;1363;3053613;-72
2021/11/10 09:18:25;;;;;;;5.50;2.20;;;;;;;1.65;56.40;101349.42;24470;1363;3054366;-70
2021/11/10 09:20:54;;;;;;;7.50;2.60;;;;;;;1.82;55.98;101351.75;24432;1362;3026484;-72
2021/11/10 09:23:23;;;;;;;7.20;2.80;;;;;;;1.64;56.74;101361.16;24458;1358;3026182;-72
2021/11/10 09:25:53;;;;;;;7.00;2.70;;;;;;;1.76;56.40;101370.40;24483;1363;3053715;-72
2021/11/10 09:28:27;;;;;;;7.30;3.00;;;;;;;1.87;56.26;101367.86;24485;1360;3027251;-72
2021/11/10 09:30:56;;;;;;;6.80;3.00;;;;;;;1.69;56.90;101370.69;24487;1363;3053167;-74
2021/11/10 09:33:28;;;;;;;6.50;2.50;;;;;;;1.62;56.77;101364.25;24432;1363;3026850;-73
2021/11/10 09:35:57;;;;;;;7.00;2.90;;;;;;;1.61;56.77;101362.34;24467;1358;3026505;-73
2021/11/10 09:38:25;;;;;;;5.70;2.50;;;;;;;1.96;55.75;101354.95;24562;1360;3052653;-73
2021/11/10 09:40:59;;;;;;;5.50;3.00;;;;;;;2.01;55.31;101355.32;24258;1363;3287700;-70
2021/11/10 09:43:30;;;;;;;6.90;2.60;;;;;;;2.08;55.62;101358.98;24448;1363;3051495;-73
2021/11/10 09:46:00;;;;;;;5.50;3.00;;;;;;;2.25;55.15;101363.55;24503;1362;3026602;-72
2021/11/10 09:48:29;;;;;;;5.20;2.70;;;;;;;2.35;54.44;101362.71;24449;1357;3029199;-73
2021/11/10 09:50:58;;;;;;;5.50;2.70;;;;;;;2.21;54.52;101369.23;24357;1362;3048708;-70
2021/11/10 09:53:27;;;;;;;4.20;1.90;;;;;;;2.01;54.93;101373.48;24433;1359;3026747;-71
2021/11/10 09:55:57;;;;;;;5.40;2.60;;;;;;;1.94;54.93;101371.36;24454;1360;3056268;-71
2021/11/10 09:58:28;;;;;;;9.20;3.10;;;;;;;1.85;55.02;101367.85;24488;1362;3026968;-72
2021/11/10 10:00:59;;;;;;;10.60;3.20;;;;;;;2.17;54.73;101376.30;24493;1357;3050603;-72
2021/11/10 10:03:28;;;;;;;4.60;2.70;;;;;;;2.57;54.06;101375.08;24471;1357;3026755;-71
2021/11/10 10:05:57;;;;;;;6.50;2.60;;;;;;;2.60;53.59;101379.06;24415;1360;3028054;-72
2021/11/10 10:08:26;;;;;;;8.50;3.20;;;;;;;2.62;53.52;101378.02;24484;1356;3026510;-73
2021/11/10 10:10:55;;;;;;;8.90;3.10;;;;;;;2.88;52.85;101380.86;24462;1357;3058397;-71
2021/11/10 10:13:26;;;;;;;8.00;3.30;;;;;;;2.98;51.92;101381.90;24439;1362;3026416;-72
2021/11/10 10:15:55;;;;;;;6.90;2.90;;;;;;;3.16;51.49;101374.48;24494;1355;3050143;-71
2021/11/10 10:18:26;;;;;;;6.50;3.20;;;;;;;2.97;50.92;101369.61;24465;1363;3027474;-72
2021/11/10 10:21:06;;;;;;;5.90;3.10;;;;;;;2.71;51.51;101375.63;24456;1362;3026329;-70
2021/11/10 10:23:41;;;;;;;8.30;3.30;;;;;;;2.92;51.79;101370.81;24442;1361;3056796;-71
2021/11/10 10:26:12;;;;;;;5.80;2.90;;;;;;;3.09;51.62;101371.00;24444;1357;3053250;-73
2021/11/10 10:28:43;;;;;;;6.00;2.90;;;;;;;3.14;51.57;101376.21;24465;1363;3028678;-73
2021/11/10 10:31:15;;;;;;;5.60;2.80;;;;;;;3.22;51.33;101381.92;24509;1363;3026909;-73
2021/11/10 10:33:46;;;;;;;6.20;3.00;;;;;;;3.18;51.10;101385.05;24449;1363;3027783;-73
2021/11/10 10:36:22;;;;;;;7.40;3.60;;;;;;;3.42;50.93;101378.81;24471;1363;3027274;-70
2021/11/10 10:39:18;;;;;;;7.50;3.00;;;;;;;3.55;50.12;101381.75;24421;1360;3058647;-72
2021/11/10 10:41:51;;;;;;;6.40;3.00;;;;;;;3.65;49.37;101380.34;24422;1356;3050269;-71
2021/11/10 10:44:22;;;;;;;7.20;2.80;;;;;;;3.62;49.19;101382.26;24524;1363;3052406;-70
2021/11/10 10:46:57;;;;;;;7.40;2.70;;;;;;;3.66;48.98;101385.89;24440;1363;3026447;-72
2021/11/10 10:49:32;;;;;;;5.60;2.90;;;;;;;3.73;48.89;101387.27;24461;1363;3069804;-75
2021/11/10 10:52:13;;;;;;;5.60;2.80;;;;;;;3.60;49.25;101386.76;24443;1360;3049806;-74
2021/11/10 10:54:44;;;;;;;6.50;2.90;;;;;;;3.75;48.92;101385.70;24459;1357;3054711;-72
2021/11/10 10:57:23;;;;;;;4.50;2.90;;;;;;;3.70;48.92;101387.95;24513;1356;3028103;-73
2021/11/10 11:00:11;;;;;;;8.00;2.70;;;;;;;3.63;49.62;101384.16;24454;1355;3055965;-71
2021/11/10 11:02:40;;;;;;;5.50;3.00;;;;;;;3.47;50.48;101381.73;24449;1362;3051616;-73
2021/11/10 11:05:09;;;;;;;7.70;2.80;;;;;;;3.61;50.10;101373.94;24500;1357;3027200;-74
2021/11/10 11:07:39;;;;;;;5.90;2.80;;;;;;;3.66;49.46;101366.65;24525;1362;3058863;-75
2021/11/10 11:10:26;;;;;;;8.30;2.10;;;;;;;3.81;48.78;101366.27;24515;1360;3052879;-72
2021/11/10 11:13:20;;;;;;;4.40;2.90;;;;;;;3.76;48.11;101361.08;24561;1357;3052910;-73
2021/11/10 11:16:08;;;;;;;9.60;2.70;;;;;;;3.56;48.03;101359.91;24550;1357;3054233;-71
2021/11/10 11:19:17;;;;;;;4.70;2.80;;;;;;;3.64;48.87;101353.14;24441;1361;3071400;-71
2021/11/10 11:21:57;;;;;;;8.60;3.40;;;;;;;3.78;48.57;101354.33;24486;1356;3050060;-72
2021/11/10 11:24:42;;;;;;;6.90;2.60;;;;;;;3.69;48.94;101346.36;24498;1355;3054814;-71
2021/11/10 11:27:24;;;;;;;6.20;2.90;;;;;;;3.81;48.54;101348.41;24506;1357;3052921;-71
2021/11/10 11:30:05;;;;;;;5.70;2.90;;;;;;;3.98;48.62;101346.11;24514;1357;3059400;-71
2021/11/10 11:32:45;;;;;;;6.20;2.70;;;;;;;3.84;47.93;101344.25;24559;1357;3049533;-72
2021/11/10 11:35:37;;;;;;;7.50;3.00;;;;;;;3.71;48.38;101343.07;24475;1358;3053417;-72